sensor_id;sensor_type;location;lat;lon;timestamp;pressure;altitude;pressure_sealevel;temperature;humidity
70133;BME280;57495;49.922;7.966;2024-01-25T00:00:43;101045.00;;;8.31;99.19
70133;BME280;57495;49.922;7.966;2024-01-25T00:02:44;101050.22;;;8.32;99.35
70133;BME280;57495;49.922;7.966;2024-01-25T00:04:46;101049.25;;;8.33;99.25
70133;BME280;57495;49.922;7.966;2024-01-25T00:06:48;101045.44;;;8.38;98.81
70133;BME280;57495;49.922;7.966;2024-01-25T00:08:50;101039.44;;;8.34;99.06
70133;BME280;57495;49.922;7.966;2024-01-25T00:10:51;101040.75;;;8.41;98.23
70133;BME280;57495;49.922;7.966;2024-01-25T00:12:53;101043.41;;;8.41;98.67
70133;BME280;57495;49.922;7.966;2024-01-25T00:14:54;101043.50;;;8.40;98.65
70133;BME280;57495;49.922;7.966;2024-01-25T00:16:56;101036.13;;;8.30;99.45
70133;BME280;57495;49.922;7.966;2024-01-25T00:18:57;101026.84;;;8.23;99.76
70133;BME280;57495;49.922;7.966;2024-01-25T00:20:58;101022.69;;;8.19;99.84
70133;BME280;57495;49.922;7.966;2024-01-25T00:23:01;101025.25;;;8.21;100.00
70133;BME280;57495;49.922;7.966;2024-01-25T00:25:03;101022.25;;;8.25;99.88
70133;BME280;57495;49.922;7.966;2024-01-25T00:27:05;101028.63;;;8.10;100.00
70133;BME280;57495;49.922;7.966;2024-01-25T00:29:06;101022.88;;;8.16;100.00
70133;BME280;57495;49.922;7.966;2024-01-25T00:31:06;101029.78;;;8.06;100.00
70133;BME280;57495;49.922;7.966;2024-01-25T00:33:09;101016.31;;;7.94;100.00
70133;BME280;57495;49.922;7.966;2024-01-25T00:35:12;101011.75;;;7.97;100.00
70133;BME280;57495;49.922;7.966;2024-01-25T00:37:14;101017.63;;;8.02;100.00
70133;BME280;57495;49.922;7.966;2024-01-25T00:39:18;101017.81;;;7.99;100.00
70133;BME280;57495;49.922;7.966;2024-01-25T00:41:19;101009.03;;;8.11;100.00
70133;BME280;57495;49.922;7.966;2024-01-25T00:43:21;101002.31;;;8.05;100.00
70133;BME280;57495;49.922;7.966;2024-01-25T00:45:23;101010.44;;;8.17;100.00
70133;BME280;57495;49.922;7.966;2024-01-25T00:47:25;101002.50;;;8.02;100.00
70133;BME280;57495;49.922;7.966;2024-01-25T00:49:27;101001.59;;;7.89;100.00
70133;BME280;57495;49.922;7.966;2024-01-25T00:51:29;101004.19;;;7.90;100.00
70133;BME280;57495;49.922;7.966;2024-01-25T00:53:31;101009.69;;;7.87;100.00
70133;BME280;57495;49.922;7.966;2024-01-25T00:55:34;101005.78;;;7.93;100.00
70133;BME280;57495;49.922;7.966;2024-01-25T00:57:37;101004.59;;;7.97;100.00
70133;BME280;57495;49.922;7.966;2024-01-25T00:59:39;101008.34;;;7.94;100.00
70133;BME280;57495;49.922;7.966;2024-01-25T01:01:40;101013.09;;;7.89;100.00
70133;BME280;57495;49.922;7.966;2024-01-25T01:03:44;101010.19;;;7.80;100.00
70133;BME280;57495;49.922;7.966;2024-01-25T01:05:46;101009.16;;;7.68;100.00
70133;BME280;57495;49.922;7.966;2024-01-25T01:07:47;101013.56;;;7.69;100.00
70133;BME280;57495;49.922;7.966;2024-01-25T01:09:48;101018.78;;;7.70;100.00
70133;BME280;57495;49.922;7.966;2024-01-25T01:11:51;101014.13;;;7.74;100.00
70133;BME280;57495;49.922;7.966;2024-01-25T01:13:52;101008.03;;;7.72;100.00
70133;BME280;57495;49.922;7.966;2024-01-25T01:15:54;101021.19;;;7.61;100.00
70133;BME280;57495;49.922;7.966;2024-01-25T01:17:55;101036.66;;;7.68;100.00
70133;BME280;57495;49.922;7.966;2024-01-25T01:19:56;101036.38;;;7.59;100.00
70133;BME280;57495;49.922;7.966;2024-01-25T01:21:57;101029.19;;;7.61;100.00
70133;BME280;57495;49.922;7.966;2024-01-25T01:23:58;101030.88;;;7.62;100.00
70133;BME280;57495;49.922;7.966;2024-01-25T01:26:00;101033.72;;;7.59;100.00
70133;BME280;57495;49.922;7.966;2024-01-25T01:28:05;101038.09;;;7.60;100.00
70133;BME280;57495;49.922;7.966;2024-01-25T01:30:07;101041.69;;;7.59;100.00
70133;BME280;57495;49.922;7.966;2024-01-25T01:32:09;101040.19;;;7.54;100.00
70133;BME280;57495;49.922;7.966;2024-01-25T01:34:09;101031.47;;;7.52;100.00
70133;BME280;57495;49.922;7.966;2024-01-25T01:36:13;101033.53;;;7.62;100.00
70133;BME280;57495;49.922;7.966;2024-01-25T01:38:14;101033.84;;;7.57;100.00
70133;BME280;57495;49.922;7.966;2024-01-25T01:40:16;101036.50;;;7.57;100.00
70133;BME280;57495;49.922;7.966;2024-01-25T01:42:17;101056.47;;;7.50;100.00
70133;BME280;57495;49.922;7.966;2024-01-25T01:44:19;101056.38;;;7.51;100.00
70133;BME280;57495;49.922;7.966;2024-01-25T01:46:29;101057.81;;;7.57;100.00
70133;BME280;57495;49.922;7.966;2024-01-25T01:48:33;101049.53;;;7.47;100.00
70133;BME280;57495;49.922;7.966;2024-01-25T01:50:34;101049.75;;;7.44;100.00
70133;BME280;57495;49.922;7.966;2024-01-25T01:52:35;101052.59;;;7.41;100.00
70133;BME280;57495;49.922;7.966;2024-01-25T01:54:37;101057.91;;;7.41;100.00
70133;BME280;57495;49.922;7.966;2024-01-25T01:56:39;101060.38;;;7.44;100.00
70133;BME280;57495;49.922;7.966;2024-01-25T01:58:41;101060.75;;;7.38;100.00
70133;BME280;57495;49.922;7.966;2024-01-25T02:00:45;101061.63;;;7.39;100.00
70133;BME280;57495;49.922;7.966;2024-01-25T02:02:49;101072.72;;;7.45;100.00
70133;BME280;57495;49.922;7.966;2024-01-25T02:04:51;101068.25;;;7.46;100.00
70133;BME280;57495;49.922;7.966;2024-01-25T02:06:52;101060.00;;;7.36;100.00
70133;BME280;57495;49.922;7.966;2024-01-25T02:08:53;101065.13;;;7.53;100.00
70133;BME280;57495;49.922;7.966;2024-01-25T02:10:56;101076.88;;;7.49;100.00
70133;BME280;57495;49.922;7.966;2024-01-25T02:12:57;101080.88;;;7.57;100.00
70133;BME280;57495;49.922;7.966;2024-01-25T02:14:58;101081.09;;;7.53;100.00
70133;BME280;57495;49.922;7.966;2024-01-25T02:17:00;101078.13;;;7.58;100.00
70133;BME280;57495;49.922;7.966;2024-01-25T02:19:02;101072.63;;;7.61;100.00
70133;BME280;57495;49.922;7.966;2024-01-25T02:21:03;101063.22;;;7.55;100.00
70133;BME280;57495;49.922;7.966;2024-01-25T02:23:05;101064.72;;;7.60;100.00
70133;BME280;57495;49.922;7.966;2024-01-25T02:25:07;101076.13;;;7.62;100.00
70133;BME280;57495;49.922;7.966;2024-01-25T02:27:08;101080.69;;;7.60;100.00
70133;BME280;57495;49.922;7.966;2024-01-25T02:29:09;101086.03;;;7.60;100.00
70133;BME280;57495;49.922;7.966;2024-01-25T02:31:10;101071.03;;;7.44;100.00
70133;BME280;57495;49.922;7.966;2024-01-25T02:33:12;101072.72;;;7.45;100.00
70133;BME280;57495;49.922;7.966;2024-01-25T02:35:13;101076.53;;;7.41;100.00
70133;BME280;57495;49.922;7.966;2024-01-25T02:37:15;101081.75;;;7.43;100.00
70133;BME280;57495;49.922;7.966;2024-01-25T02:39:18;101078.88;;;7.46;100.00
70133;BME280;57495;49.922;7.966;2024-01-25T02:41:20;101067.88;;;7.38;100.00
70133;BME280;57495;49.922;7.966;2024-01-25T02:43:21;101068.19;;;7.33;100.00
70133;BME280;57495;49.922;7.966;2024-01-25T02:45:23;101075.97;;;7.36;100.00
70133;BME280;57495;49.922;7.966;2024-01-25T02:47:24;101079.09;;;7.43;100.00
70133;BME280;57495;49.922;7.966;2024-01-25T02:49:26;101077.09;;;7.46;100.00
70133;BME280;57495;49.922;7.966;2024-01-25T02:51:27;101081.53;;;7.46;100.00
70133;BME280;57495;49.922;7.966;2024-01-25T02:53:28;101078.72;;;7.49;100.00
70133;BME280;57495;49.922;7.966;2024-01-25T02:55:31;101082.44;;;7.46;100.00
70133;BME280;57495;49.922;7.966;2024-01-25T02:57:33;101089.25;;;7.50;100.00
70133;BME280;57495;49.922;7.966;2024-01-25T02:59:34;101093.66;;;7.51;100.00
70133;BME280;57495;49.922;7.966;2024-01-25T03:01:40;101092.97;;;7.48;100.00
70133;BME280;57495;49.922;7.966;2024-01-25T03:03:41;101082.44;;;7.32;100.00
70133;BME280;57495;49.922;7.966;2024-01-25T03:05:43;101090.03;;;7.24;100.00
70133;BME280;57495;49.922;7.966;2024-01-25T03:07:44;101088.97;;;7.26;100.00
70133;BME280;57495;49.922;7.966;2024-01-25T03:09:45;101089.66;;;7.30;100.00
70133;BME280;57495;49.922;7.966;2024-01-25T03:11:48;101080.53;;;7.34;100.00
70133;BME280;57495;49.922;7.966;2024-01-25T03:13:50;101075.38;;;7.31;100.00
70133;BME280;57495;49.922;7.966;2024-01-25T03:15:51;101073.69;;;7.30;100.00
70133;BME280;57495;49.922;7.966;2024-01-25T03:17:52;101070.63;;;7.22;100.00
70133;BME280;57495;49.922;7.966;2024-01-25T03:19:54;101062.66;;;7.07;100.00
70133;BME280;57495;49.922;7.966;2024-01-25T03:21:55;101066.56;;;7.02;100.00
70133;BME280;57495;49.922;7.966;2024-01-25T03:23:57;101071.38;;;6.95;100.00
70133;BME280;57495;49.922;7.966;2024-01-25T03:25:58;101065.50;;;6.90;100.00
70133;BME280;57495;49.922;7.966;2024-01-25T03:28:01;101069.97;;;6.89;100.00
70133;BME280;57495;49.922;7.966;2024-01-25T03:30:03;101075.78;;;6.96;100.00
70133;BME280;57495;49.922;7.966;2024-01-25T03:32:05;101077.09;;;6.89;100.00
70133;BME280;57495;49.922;7.966;2024-01-25T03:34:07;101065.09;;;6.82;100.00
70133;BME280;57495;49.922;7.966;2024-01-25T03:36:08;101069.66;;;6.80;100.00
70133;BME280;57495;49.922;7.966;2024-01-25T03:38:10;101078.09;;;6.86;100.00
70133;BME280;57495;49.922;7.966;2024-01-25T03:40:14;101072.88;;;6.85;100.00
70133;BME280;57495;49.922;7.966;2024-01-25T03:42:15;101082.19;;;6.92;100.00
70133;BME280;57495;49.922;7.966;2024-01-25T03:44:18;101084.31;;;6.87;100.00
70133;BME280;57495;49.922;7.966;2024-01-25T03:46:19;101082.50;;;6.87;100.00
70133;BME280;57495;49.922;7.966;2024-01-25T03:48:21;101082.13;;;6.93;100.00
70133;BME280;57495;49.922;7.966;2024-01-25T03:50:22;101095.69;;;6.89;100.00
70133;BME280;57495;49.922;7.966;2024-01-25T03:52:24;101097.81;;;6.98;100.00
70133;BME280;57495;49.922;7.966;2024-01-25T03:54:25;101091.34;;;7.02;100.00
70133;BME280;57495;49.922;7.966;2024-01-25T03:56:26;101104.34;;;7.07;100.00
70133;BME280;57495;49.922;7.966;2024-01-25T03:58:28;101106.75;;;7.11;100.00
70133;BME280;57495;49.922;7.966;2024-01-25T04:00:30;101111.69;;;7.18;100.00
70133;BME280;57495;49.922;7.966;2024-01-25T04:02:31;101108.75;;;7.22;100.00
70133;BME280;57495;49.922;7.966;2024-01-25T04:04:32;101118.63;;;7.20;100.00
70133;BME280;57495;49.922;7.966;2024-01-25T04:06:34;101128.97;;;7.25;100.00
70133;BME280;57495;49.922;7.966;2024-01-25T04:08:34;101120.16;;;7.24;100.00
70133;BME280;57495;49.922;7.966;2024-01-25T04:10:36;101125.16;;;7.29;100.00
70133;BME280;57495;49.922;7.966;2024-01-25T04:12:37;101131.38;;;7.29;100.00
70133;BME280;57495;49.922;7.966;2024-01-25T04:14:39;101130.69;;;7.26;100.00
70133;BME280;57495;49.922;7.966;2024-01-25T04:16:42;101129.38;;;7.19;100.00
70133;BME280;57495;49.922;7.966;2024-01-25T04:18:46;101132.78;;;7.21;100.00
70133;BME280;57495;49.922;7.966;2024-01-25T04:20:48;101131.06;;;7.20;100.00
70133;BME280;57495;49.922;7.966;2024-01-25T04:22:50;101133.34;;;7.11;100.00
70133;BME280;57495;49.922;7.966;2024-01-25T04:24:52;101132.16;;;7.01;100.00
70133;BME280;57495;49.922;7.966;2024-01-25T04:26:53;101142.03;;;6.99;100.00
70133;BME280;57495;49.922;7.966;2024-01-25T04:28:55;101134.63;;;6.90;100.00
70133;BME280;57495;49.922;7.966;2024-01-25T04:30:56;101129.63;;;7.00;100.00
70133;BME280;57495;49.922;7.966;2024-01-25T04:32:59;101129.34;;;7.04;100.00
70133;BME280;57495;49.922;7.966;2024-01-25T04:35:00;101132.16;;;7.01;100.00
70133;BME280;57495;49.922;7.966;2024-01-25T04:37:02;101129.16;;;7.07;100.00
70133;BME280;57495;49.922;7.966;2024-01-25T04:39:04;101127.22;;;6.95;100.00
70133;BME280;57495;49.922;7.966;2024-01-25T04:41:05;101127.22;;;6.95;100.00
70133;BME280;57495;49.922;7.966;2024-01-25T04:43:07;101128.25;;;6.78;100.00
70133;BME280;57495;49.922;7.966;2024-01-25T04:45:09;101118.53;;;6.63;100.00
70133;BME280;57495;49.922;7.966;2024-01-25T04:47:10;101126.16;;;6.53;100.00
70133;BME280;57495;49.922;7.966;2024-01-25T04:49:13;101132.38;;;6.68;100.00
70133;BME280;57495;49.922;7.966;2024-01-25T04:51:15;101138.13;;;6.60;100.00
70133;BME280;57495;49.922;7.966;2024-01-25T04:53:16;101133.19;;;6.54;100.00
70133;BME280;57495;49.922;7.966;2024-01-25T04:55:18;101143.47;;;6.60;100.00
70133;BME280;57495;49.922;7.966;2024-01-25T04:57:20;101143.19;;;6.65;100.00
70133;BME280;57495;49.922;7.966;2024-01-25T04:59:21;101141.84;;;6.57;100.00
70133;BME280;57495;49.922;7.966;2024-01-25T05:01:23;101134.88;;;6.55;100.00
70133;BME280;57495;49.922;7.966;2024-01-25T05:03:24;101141.75;;;6.59;100.00
70133;BME280;57495;49.922;7.966;2024-01-25T05:05:27;101146.19;;;6.58;100.00
70133;BME280;57495;49.922;7.966;2024-01-25T05:07:28;101143.28;;;6.63;100.00
70133;BME280;57495;49.922;7.966;2024-01-25T05:09:30;101145.38;;;6.42;100.00
70133;BME280;57495;49.922;7.966;2024-01-25T05:11:30;101151.03;;;6.52;100.00
70133;BME280;57495;49.922;7.966;2024-01-25T05:13:31;101156.81;;;6.58;100.00
70133;BME280;57495;49.922;7.966;2024-01-25T05:15:33;101157.19;;;6.52;100.00
70133;BME280;57495;49.922;7.966;2024-01-25T05:17:34;101162.00;;;6.46;100.00
70133;BME280;57495;49.922;7.966;2024-01-25T05:19:36;101173.66;;;6.59;100.00
70133;BME280;57495;49.922;7.966;2024-01-25T05:21:38;101171.06;;;6.57;100.00
70133;BME280;57495;49.922;7.966;2024-01-25T05:23:40;101175.19;;;6.63;100.00
70133;BME280;57495;49.922;7.966;2024-01-25T05:25:41;101190.09;;;6.66;100.00
70133;BME280;57495;49.922;7.966;2024-01-25T05:27:43;101188.19;;;6.68;100.00
70133;BME280;57495;49.922;7.966;2024-01-25T05:29:44;101189.91;;;6.69;100.00
70133;BME280;57495;49.922;7.966;2024-01-25T05:31:44;101196.50;;;6.77;100.00
70133;BME280;57495;49.922;7.966;2024-01-25T05:33:46;101201.72;;;6.79;100.00
70133;BME280;57495;49.922;7.966;2024-01-25T05:35:47;101212.00;;;6.85;100.00
70133;BME280;57495;49.922;7.966;2024-01-25T05:37:50;101207.91;;;6.80;100.00
70133;BME280;57495;49.922;7.966;2024-01-25T05:39:52;101202.59;;;6.80;100.00
70133;BME280;57495;49.922;7.966;2024-01-25T05:41:52;101208.16;;;6.75;100.00
70133;BME280;57495;49.922;7.966;2024-01-25T05:43:53;101212.69;;;6.89;100.00
70133;BME280;57495;49.922;7.966;2024-01-25T05:45:55;101218.53;;;6.80;100.00
70133;BME280;57495;49.922;7.966;2024-01-25T05:47:56;101216.50;;;6.69;100.00
70133;BME280;57495;49.922;7.966;2024-01-25T05:49:58;101220.59;;;6.74;100.00
70133;BME280;57495;49.922;7.966;2024-01-25T05:51:58;101217.19;;;6.72;100.00
70133;BME280;57495;49.922;7.966;2024-01-25T05:54:01;101216.03;;;6.76;100.00
70133;BME280;57495;49.922;7.966;2024-01-25T05:56:03;101216.16;;;6.59;100.00
70133;BME280;57495;49.922;7.966;2024-01-25T05:58:05;101214.97;;;6.49;100.00
70133;BME280;57495;49.922;7.966;2024-01-25T06:00:07;101204.19;;;6.52;100.00
70133;BME280;57495;49.922;7.966;2024-01-25T06:02:09;101211.53;;;6.47;100.00
70133;BME280;57495;49.922;7.966;2024-01-25T06:04:09;101215.31;;;6.43;100.00
70133;BME280;57495;49.922;7.966;2024-01-25T06:06:10;101211.72;;;6.28;100.00
70133;BME280;57495;49.922;7.966;2024-01-25T06:08:12;101207.09;;;6.31;100.00
70133;BME280;57495;49.922;7.966;2024-01-25T06:10:14;101208.38;;;6.24;100.00
70133;BME280;57495;49.922;7.966;2024-01-25T06:12:15;101201.69;;;6.17;100.00
70133;BME280;57495;49.922;7.966;2024-01-25T06:14:17;101201.50;;;6.04;100.00
70133;BME280;57495;49.922;7.966;2024-01-25T06:16:18;101208.00;;;6.14;100.00
70133;BME280;57495;49.922;7.966;2024-01-25T06:18:20;101213.09;;;6.19;100.00
70133;BME280;57495;49.922;7.966;2024-01-25T06:20:21;101209.81;;;6.14;100.00
70133;BME280;57495;49.922;7.966;2024-01-25T06:22:22;101212.66;;;6.11;100.00
70133;BME280;57495;49.922;7.966;2024-01-25T06:24:24;101215.31;;;6.11;100.00
70133;BME280;57495;49.922;7.966;2024-01-25T06:26:26;101220.28;;;6.17;100.00
70133;BME280;57495;49.922;7.966;2024-01-25T06:28:27;101220.28;;;6.17;100.00
70133;BME280;57495;49.922;7.966;2024-01-25T06:30:28;101216.78;;;6.16;100.00
70133;BME280;57495;49.922;7.966;2024-01-25T06:32:29;101216.66;;;6.18;100.00
70133;BME280;57495;49.922;7.966;2024-01-25T06:34:30;101213.94;;;6.19;100.00
70133;BME280;57495;49.922;7.966;2024-01-25T06:36:32;101222.31;;;6.12;100.00
70133;BME280;57495;49.922;7.966;2024-01-25T06:38:33;101216.47;;;6.05;100.00
70133;BME280;57495;49.922;7.966;2024-01-25T06:40:36;101214.53;;;6.09;100.00
70133;BME280;57495;49.922;7.966;2024-01-25T06:42:39;101211.88;;;6.09;100.00
70133;BME280;57495;49.922;7.966;2024-01-25T06:44:40;101212.22;;;6.03;100.00
70133;BME280;57495;49.922;7.966;2024-01-25T06:46:41;101210.50;;;6.02;100.00
70133;BME280;57495;49.922;7.966;2024-01-25T06:48:43;101217.06;;;5.94;100.00
70133;BME280;57495;49.922;7.966;2024-01-25T06:50:44;101220.53;;;5.96;100.00
70133;BME280;57495;49.922;7.966;2024-01-25T06:52:46;101220.19;;;6.03;100.00
70133;BME280;57495;49.922;7.966;2024-01-25T06:54:48;101219.25;;;6.04;100.00
70133;BME280;57495;49.922;7.966;2024-01-25T06:56:49;101217.38;;;6.06;100.00
70133;BME280;57495;49.922;7.966;2024-01-25T06:58:53;101212.38;;;5.99;100.00
70133;BME280;57495;49.922;7.966;2024-01-25T07:00:54;101217.53;;;6.03;100.00
70133;BME280;57495;49.922;7.966;2024-01-25T07:02:55;101220.03;;;6.06;100.00
70133;BME280;57495;49.922;7.966;2024-01-25T07:04:57;101221.03;;;6.03;100.00
70133;BME280;57495;49.922;7.966;2024-01-25T07:06:57;101221.78;;;6.05;100.00
70133;BME280;57495;49.922;7.966;2024-01-25T07:09:00;101219.72;;;5.94;100.00
70133;BME280;57495;49.922;7.966;2024-01-25T07:11:01;101222.44;;;5.93;100.00
70133;BME280;57495;49.922;7.966;2024-01-25T07:13:03;101228.25;;;5.84;100.00
70133;BME280;57495;49.922;7.966;2024-01-25T07:15:06;101234.06;;;5.90;100.00
70133;BME280;57495;49.922;7.966;2024-01-25T07:17:08;101228.53;;;5.95;100.00
70133;BME280;57495;49.922;7.966;2024-01-25T07:19:09;101228.75;;;5.90;100.00
70133;BME280;57495;49.922;7.966;2024-01-25T07:21:10;101228.75;;;5.90;100.00
70133;BME280;57495;49.922;7.966;2024-01-25T07:23:11;101224.91;;;5.80;100.00
70133;BME280;57495;49.922;7.966;2024-01-25T07:25:12;101225.06;;;5.77;100.00
70133;BME280;57495;49.922;7.966;2024-01-25T07:27:14;101224.28;;;5.75;100.00
70133;BME280;57495;49.922;7.966;2024-01-25T07:29:15;101229.16;;;5.67;100.00
70133;BME280;57495;49.922;7.966;2024-01-25T07:31:18;101229.09;;;5.84;100.00
70133;BME280;57495;49.922;7.966;2024-01-25T07:33:20;101226.94;;;5.75;100.00
70133;BME280;57495;49.922;7.966;2024-01-25T07:35:21;101230.13;;;5.81;100.00
70133;BME280;57495;49.922;7.966;2024-01-25T07:37:23;101235.94;;;5.88;100.00
70133;BME280;57495;49.922;7.966;2024-01-25T07:39:25;101222.94;;;5.84;100.00
70133;BME280;57495;49.922;7.966;2024-01-25T07:41:26;101212.81;;;5.74;100.00
70133;BME280;57495;49.922;7.966;2024-01-25T07:43:28;101217.16;;;5.75;100.00
70133;BME280;57495;49.922;7.966;2024-01-25T07:45:30;101224.91;;;5.80;100.00
70133;BME280;57495;49.922;7.966;2024-01-25T07:47:33;101235.94;;;5.88;100.00
70133;BME280;57495;49.922;7.966;2024-01-25T07:49:35;101235.09;;;5.88;100.00
70133;BME280;57495;49.922;7.966;2024-01-25T07:51:35;101240.72;;;5.99;100.00
70133;BME280;57495;49.922;7.966;2024-01-25T07:53:36;101228.84;;;6.06;100.00
70133;BME280;57495;49.922;7.966;2024-01-25T07:55:37;101234.63;;;5.97;100.00
70133;BME280;57495;49.922;7.966;2024-01-25T07:57:39;101221.84;;;5.88;100.00
70133;BME280;57495;49.922;7.966;2024-01-25T07:59:41;101221.44;;;5.95;100.00
70133;BME280;57495;49.922;7.966;2024-01-25T08:01:42;101223.19;;;5.96;100.00
70133;BME280;57495;49.922;7.966;2024-01-25T08:03:45;101229.41;;;5.95;100.00
70133;BME280;57495;49.922;7.966;2024-01-25T08:05:46;101230.19;;;5.97;100.00
70133;BME280;57495;49.922;7.966;2024-01-25T08:07:47;101216.81;;;5.99;100.00
70133;BME280;57495;49.922;7.966;2024-01-25T08:09:49;101213.94;;;6.04;100.00
70133;BME280;57495;49.922;7.966;2024-01-25T08:11:52;101226.28;;;5.87;100.00
70133;BME280;57495;49.922;7.966;2024-01-25T08:13:54;101227.78;;;6.09;100.00
70133;BME280;57495;49.922;7.966;2024-01-25T08:15:55;101233.63;;;6.15;100.00
70133;BME280;57495;49.922;7.966;2024-01-25T08:17:57;101237.75;;;6.21;100.00
70133;BME280;57495;49.922;7.966;2024-01-25T08:20:00;101236.56;;;6.27;100.00
70133;BME280;57495;49.922;7.966;2024-01-25T08:22:01;101241.19;;;6.39;100.00
70133;BME280;57495;49.922;7.966;2024-01-25T08:24:03;101240.16;;;6.42;100.00
70133;BME280;57495;49.922;7.966;2024-01-25T08:26:05;101238.13;;;6.47;100.00
70133;BME280;57495;49.922;7.966;2024-01-25T08:28:09;101249.94;;;6.57;100.00
70133;BME280;57495;49.922;7.966;2024-01-25T08:30:11;101247.88;;;6.46;100.00
70133;BME280;57495;49.922;7.966;2024-01-25T08:32:13;101248.56;;;6.50;100.00
70133;BME280;57495;49.922;7.966;2024-01-25T08:34:14;101239.31;;;6.57;100.00
70133;BME280;57495;49.922;7.966;2024-01-25T08:36:18;101236.47;;;6.60;100.00
70133;BME280;57495;49.922;7.966;2024-01-25T08:38:19;101243.44;;;6.47;100.00
70133;BME280;57495;49.922;7.966;2024-01-25T08:40:21;101243.94;;;6.53;100.00
70133;BME280;57495;49.922;7.966;2024-01-25T08:42:22;101250.13;;;6.54;100.00
70133;BME280;57495;49.922;7.966;2024-01-25T08:44:24;101251.13;;;6.67;100.00
70133;BME280;57495;49.922;7.966;2024-01-25T08:46:25;101255.41;;;6.70;100.00
70133;BME280;57495;49.922;7.966;2024-01-25T08:48:26;101264.41;;;6.83;100.00
70133;BME280;57495;49.922;7.966;2024-01-25T08:50:28;101269.63;;;6.85;100.00
70133;BME280;57495;49.922;7.966;2024-01-25T08:52:31;101259.19;;;6.66;100.00
70133;BME280;57495;49.922;7.966;2024-01-25T08:54:32;101266.63;;;6.75;100.00
70133;BME280;57495;49.922;7.966;2024-01-25T08:56:34;101268.78;;;6.84;100.00
70133;BME280;57495;49.922;7.966;2024-01-25T08:58:35;101269.88;;;6.96;100.00
70133;BME280;57495;49.922;7.966;2024-01-25T09:00:37;101270.75;;;6.96;100.00
70133;BME280;57495;49.922;7.966;2024-01-25T09:02:38;101277.66;;;7.15;100.00
70133;BME280;57495;49.922;7.966;2024-01-25T09:04:40;101264.25;;;7.16;100.00
70133;BME280;57495;49.922;7.966;2024-01-25T09:06:43;101259.34;;;7.25;100.00
70133;BME280;57495;49.922;7.966;2024-01-25T09:08:46;101267.53;;;7.36;100.00
70133;BME280;57495;49.922;7.966;2024-01-25T09:10:47;101266.09;;;7.30;100.00
70133;BME280;57495;49.922;7.966;2024-01-25T09:12:48;101274.09;;;7.30;100.00
70133;BME280;57495;49.922;7.966;2024-01-25T09:14:50;101261.88;;;7.42;100.00
70133;BME280;57495;49.922;7.966;2024-01-25T09:16:51;101268.50;;;7.35;100.00
70133;BME280;57495;49.922;7.966;2024-01-25T09:18:53;101262.13;;;7.38;100.00
70133;BME280;57495;49.922;7.966;2024-01-25T09:20:54;101263.31;;;7.48;100.00
70133;BME280;57495;49.922;7.966;2024-01-25T09:22:56;101266.19;;;7.59;100.00
70133;BME280;57495;49.922;7.966;2024-01-25T09:24:58;101274.06;;;7.61;100.00
70133;BME280;57495;49.922;7.966;2024-01-25T09:26:59;101273.09;;;7.62;100.00
70133;BME280;57495;49.922;7.966;2024-01-25T09:29:00;101275.69;;;7.63;100.00
70133;BME280;57495;49.922;7.966;2024-01-25T09:31:02;101275.38;;;7.68;100.00
70133;BME280;57495;49.922;7.966;2024-01-25T09:33:04;101263.63;;;7.72;100.00
70133;BME280;57495;49.922;7.966;2024-01-25T09:35:06;101270.06;;;7.68;100.00
70133;BME280;57495;49.922;7.966;2024-01-25T09:37:08;101262.47;;;7.76;100.00
70133;BME280;57495;49.922;7.966;2024-01-25T09:39:09;101267.44;;;7.82;100.00
70133;BME280;57495;49.922;7.966;2024-01-25T09:41:12;101260.50;;;7.94;100.00
70133;BME280;57495;49.922;7.966;2024-01-25T09:43:12;101267.25;;;8.00;100.00
70133;BME280;57495;49.922;7.966;2024-01-25T09:45:17;101271.91;;;8.10;100.00
70133;BME280;57495;49.922;7.966;2024-01-25T09:47:18;101275.81;;;8.19;100.00
70133;BME280;57495;49.922;7.966;2024-01-25T09:49:21;101270.28;;;8.22;100.00
70133;BME280;57495;49.922;7.966;2024-01-25T09:51:23;101279.88;;;8.25;100.00
70133;BME280;57495;49.922;7.966;2024-01-25T09:53:25;101278.47;;;8.33;100.00
70133;BME280;57495;49.922;7.966;2024-01-25T09:55:27;101278.16;;;8.38;100.00
70133;BME280;57495;49.922;7.966;2024-01-25T09:57:30;101281.59;;;8.55;100.00
70133;BME280;57495;49.922;7.966;2024-01-25T09:59:32;101276.56;;;8.50;100.00
70133;BME280;57495;49.922;7.966;2024-01-25T10:01:34;101281.31;;;8.45;100.00
70133;BME280;57495;49.922;7.966;2024-01-25T10:03:34;101280.16;;;8.49;100.00
70133;BME280;57495;49.922;7.966;2024-01-25T10:05:36;101275.41;;;8.54;100.00
70133;BME280;57495;49.922;7.966;2024-01-25T10:07:38;101276.47;;;8.51;100.00
70133;BME280;57495;49.922;7.966;2024-01-25T10:09:41;101271.41;;;8.61;100.00
70133;BME280;57495;49.922;7.966;2024-01-25T10:11:42;101276.06;;;8.58;100.00
70133;BME280;57495;49.922;7.966;2024-01-25T10:13:46;101282.81;;;8.63;100.00
70133;BME280;57495;49.922;7.966;2024-01-25T10:15:48;101288.84;;;8.52;100.00
70133;BME280;57495;49.922;7.966;2024-01-25T10:17:50;101295.75;;;8.69;100.00
70133;BME280;57495;49.922;7.966;2024-01-25T10:19:51;101306.41;;;9.11;100.00
70133;BME280;57495;49.922;7.966;2024-01-25T10:21:52;101296.44;;;9.40;100.00
70133;BME280;57495;49.922;7.966;2024-01-25T10:23:54;101303.91;;;9.35;100.00
70133;BME280;57495;49.922;7.966;2024-01-25T10:25:58;101300.50;;;9.33;100.00
70133;BME280;57495;49.922;7.966;2024-01-25T10:27:58;101292.25;;;9.36;100.00
70133;BME280;57495;49.922;7.966;2024-01-25T10:30:01;101289.69;;;9.22;100.00
70133;BME280;57495;49.922;7.966;2024-01-25T10:32:02;101280.03;;;9.59;100.00
70133;BME280;57495;49.922;7.966;2024-01-25T10:34:05;101274.78;;;9.58;99.79
70133;BME280;57495;49.922;7.966;2024-01-25T10:36:08;101269.34;;;9.85;100.00